Time;durP1;ratioP1;P1;durP2;ratioP2;P2;SDS_P1;SDS_P2;PMS_P1;PMS_P2;Temp;Humidity;BMP_temperature;BMP_pressure;BME280_temperature;BME280_humidity;BME280_pressure;Samples;Min_cycle;Max_cycle;Signal;HPM_P1;HPM_P2
2020/10/01 00:00:20;;;;;;;2.52;2.32;;;;;;;19.85;65.00;99782.90;;;;-56
2020/10/01 00:03:20;;;;;;;2.53;2.33;;;;;;;19.84;65.00;99780.80;;;;-56
2020/10/01 00:06:20;;;;;;;3.69;2.58;;;;;;;19.84;65.05;99776.80;;;;-56
2020/10/01 00:09:20;;;;;;;2.64;2.44;;;;;;;19.83;65.04;99770.38;;;;-56
2020/10/01 00:12:20;;;;;;;2.86;2.58;;;;;;;19.83;65.00;99766.16;;;;-56
2020/10/01 00:15:20;;;;;;;2.91;2.60;;;;;;;19.83;65.02;99763.98;;;;-56
2020/10/01 00:18:20;;;;;;;2.63;2.43;;;;;;;19.82;65.01;99759.20;;;;-56
2020/10/01 00:21:20;;;;;;;2.83;2.57;;;;;;;19.81;65.06;99755.11;;;;-56
2020/10/01 00:24:20;;;;;;;2.86;2.57;;;;;;;19.81;65.02;99752.60;;;;-56
2020/10/01 00:27:20;;;;;;;2.60;2.39;;;;;;;19.81;65.02;99751.69;;;;-56
2020/10/01 00:30:20;;;;;;;2.83;2.43;;;;;;;19.81;65.06;99749.84;;;;-56
2020/10/01 00:33:20;;;;;;;2.50;2.30;;;;;;;19.80;65.06;99743.51;;;;-56
2020/10/01 00:36:20;;;;;;;2.63;2.40;;;;;;;19.78;65.02;99740.75;;;;-56
2020/10/01 00:39:20;;;;;;;2.93;2.29;;;;;;;19.79;65.05;99733.51;;;;-56
2020/10/01 00:42:20;;;;;;;2.79;2.59;;;;;;;19.78;65.06;99726.37;;;;-56
2020/10/01 00:45:20;;;;;;;2.49;2.29;;;;;;;19.78;65.04;99721.50;;;;-56
2020/10/01 00:48:20;;;;;;;2.44;2.24;;;;;;;19.78;65.10;99718.56;;;;-56
2020/10/01 00:51:20;;;;;;;2.74;2.50;;;;;;;19.79;65.08;99719.03;;;;-56
2020/10/01 00:54:20;;;;;;;2.79;2.49;;;;;;;19.78;65.03;99712.55;;;;-55
2020/10/01 00:57:20;;;;;;;2.59;2.39;;;;;;;19.77;65.05;99708.39;;;;-56
2020/10/01 01:00:20;;;;;;;2.44;2.24;;;;;;;19.77;65.05;99703.92;;;;-56
2020/10/01 01:03:20;;;;;;;3.11;2.47;;;;;;;19.77;65.07;99703.92;;;;-56
2020/10/01 01:06:20;;;;;;;2.50;2.30;;;;;;;19.76;65.08;99703.37;;;;-56
2020/10/01 01:09:20;;;;;;;2.87;2.55;;;;;;;19.76;65.07;99701.27;;;;-56
2020/10/01 01:12:20;;;;;;;2.72;2.47;;;;;;;19.76;65.02;99695.98;;;;-56
2020/10/01 01:15:20;;;;;;;2.75;2.43;;;;;;;19.75;65.08;99690.27;;;;-56
2020/10/01 01:18:20;;;;;;;2.61;2.41;;;;;;;19.75;65.05;99680.86;;;;-56
2020/10/01 01:21:20;;;;;;;2.60;2.40;;;;;;;19.75;65.06;99676.62;;;;-56
2020/10/01 01:24:20;;;;;;;2.55;2.35;;;;;;;19.75;65.07;99673.70;;;;-56
2020/10/01 01:27:20;;;;;;;2.65;2.45;;;;;;;19.75;65.02;99669.14;;;;-56
2020/10/01 01:30:20;;;;;;;2.66;2.45;;;;;;;19.74;65.07;99665.82;;;;-56
2020/10/01 01:33:20;;;;;;;2.51;2.30;;;;;;;19.74;65.06;99657.79;;;;-56
2020/10/01 01:36:20;;;;;;;2.62;2.42;;;;;;;19.74;65.07;99658.27;;;;-56
2020/10/01 01:39:20;;;;;;;2.65;2.27;;;;;;;19.73;65.04;99650.69;;;;-56
2020/10/01 01:42:20;;;;;;;3.03;2.31;;;;;;;19.73;65.07;99641.52;;;;-56
2020/10/01 01:45:20;;;;;;;2.53;2.33;;;;;;;19.73;65.06;99634.03;;;;-56
2020/10/01 01:48:20;;;;;;;2.77;2.49;;;;;;;19.72;65.02;99632.83;;;;-56
2020/10/01 01:51:20;;;;;;;2.61;2.41;;;;;;;19.72;65.04;99629.91;;;;-56
2020/10/01 01:54:20;;;;;;;2.60;2.40;;;;;;;19.72;65.04;99627.63;;;;-56
2020/10/01 01:57:20;;;;;;;2.56;2.36;;;;;;;19.72;65.07;99630.64;;;;-56
2020/10/01 02:00:20;;;;;;;2.71;2.47;;;;;;;19.72;65.09;99629.35;;;;-56
2020/10/01 02:03:20;;;;;;;2.69;2.49;;;;;;;19.71;65.06;99625.44;;;;-56
2020/10/01 02:06:20;;;;;;;2.50;2.28;;;;;;;19.72;65.02;99626.91;;;;-56
2020/10/01 02:09:20;;;;;;;2.63;2.36;;;;;;;19.71;65.01;99622.83;;;;-56
2020/10/01 02:12:20;;;;;;;2.50;2.30;;;;;;;19.71;65.08;99619.75;;;;-56
2020/10/01 02:15:20;;;;;;;2.63;2.43;;;;;;;19.71;65.04;99616.74;;;;-56
2020/10/01 02:18:20;;;;;;;2.51;2.31;;;;;;;19.70;65.07;99612.83;;;;-56
2020/10/01 02:21:20;;;;;;;2.40;2.20;;;;;;;19.70;65.08;99611.61;;;;-55
2020/10/01 02:24:20;;;;;;;2.50;2.30;;;;;;;19.70;65.05;99607.63;;;;-56
2020/10/01 02:27:20;;;;;;;2.44;2.24;;;;;;;19.70;65.03;99606.17;;;;-56
2020/10/01 02:30:20;;;;;;;3.37;2.59;;;;;;;19.69;65.05;99601.52;;;;-55
2020/10/01 02:33:20;;;;;;;2.54;2.34;;;;;;;19.69;65.05;99601.84;;;;-56
2020/10/01 02:36:20;;;;;;;2.51;2.31;;;;;;;19.69;65.00;99597.06;;;;-56
2020/10/01 02:39:20;;;;;;;2.50;2.29;;;;;;;19.68;65.06;99593.66;;;;-56
2020/10/01 02:42:20;;;;;;;2.59;2.39;;;;;;;19.69;65.03;99594.78;;;;-56
2020/10/01 02:45:20;;;;;;;2.51;2.31;;;;;;;19.68;65.06;99591.39;;;;-56
2020/10/01 02:48:20;;;;;;;2.35;2.15;;;;;;;19.67;65.08;99589.04;;;;-56
2020/10/01 02:51:20;;;;;;;2.47;2.27;;;;;;;19.68;65.07;99582.45;;;;-56
2020/10/01 02:54:20;;;;;;;2.53;2.33;;;;;;;19.66;65.05;99578.95;;;;-56
2020/10/01 02:57:20;;;;;;;2.58;2.38;;;;;;;19.67;65.09;99574.15;;;;-56
2020/10/01 03:00:20;;;;;;;2.41;2.12;;;;;;;19.67;65.05;99572.28;;;;-56
2020/10/01 03:03:20;;;;;;;2.43;2.23;;;;;;;19.67;65.06;99572.20;;;;-56
2020/10/01 03:06:20;;;;;;;2.59;2.39;;;;;;;19.66;65.01;99570.02;;;;-55
2020/10/01 03:09:20;;;;;;;2.48;2.28;;;;;;;19.66;65.05;99568.00;;;;-56
2020/10/01 03:12:20;;;;;;;2.61;2.39;;;;;;;19.66;65.03;99568.97;;;;-56
2020/10/01 03:15:20;;;;;;;2.58;2.25;;;;;;;19.65;65.06;99558.97;;;;-56
2020/10/01 03:18:20;;;;;;;2.59;2.24;;;;;;;19.65;65.09;99561.59;;;;-56
2020/10/01 03:21:20;;;;;;;2.42;2.22;;;;;;;19.65;65.02;99562.23;;;;-56
2020/10/01 03:24:20;;;;;;;2.43;2.23;;;;;;;19.65;65.04;99557.66;;;;-56
2020/10/01 03:27:20;;;;;;;2.63;2.36;;;;;;;19.65;65.05;99554.92;;;;-56
2020/10/01 03:30:20;;;;;;;2.49;2.29;;;;;;;19.64;65.01;99550.28;;;;-56
2020/10/01 03:33:20;;;;;;;2.49;2.29;;;;;;;19.63;65.01;99552.66;;;;-56
2020/10/01 03:36:20;;;;;;;2.59;2.25;;;;;;;19.64;65.03;99552.73;;;;-56
2020/10/01 03:39:20;;;;;;;2.29;2.09;;;;;;;19.63;65.02;99550.96;;;;-56
2020/10/01 03:42:20;;;;;;;2.36;2.16;;;;;;;19.63;65.06;99552.80;;;;-56
2020/10/01 03:45:20;;;;;;;2.43;2.23;;;;;;;19.63;65.08;99545.27;;;;-55
2020/10/01 03:48:20;;;;;;;2.40;2.20;;;;;;;19.62;65.04;99543.39;;;;-56
2020/10/01 03:51:20;;;;;;;2.51;2.31;;;;;;;19.62;65.03;99541.36;;;;-56
2020/10/01 03:54:20;;;;;;;2.62;2.41;;;;;;;19.63;65.06;99530.63;;;;-56
2020/10/01 03:57:20;;;;;;;2.50;2.30;;;;;;;19.62;65.01;99526.57;;;;-56
2020/10/01 04:00:20;;;;;;;2.40;2.20;;;;;;;19.62;65.00;99522.84;;;;-56
2020/10/01 04:03:20;;;;;;;2.49;2.27;;;;;;;19.62;65.06;99522.51;;;;-55
2020/10/01 04:06:20;;;;;;;2.42;2.22;;;;;;;19.62;65.03;99516.99;;;;-56
2020/10/01 04:09:20;;;;;;;2.41;2.21;;;;;;;19.61;65.01;99509.44;;;;-56
2020/10/01 04:12:20;;;;;;;2.47;2.27;;;;;;;19.61;65.04;99510.89;;;;-56
2020/10/01 04:15:20;;;;;;;2.53;2.27;;;;;;;19.60;65.08;99506.67;;;;-56
2020/10/01 04:18:21;;;;;;;2.50;2.30;;;;;;;19.60;65.00;99504.81;;;;-56
2020/10/01 04:21:21;;;;;;;2.57;2.37;;;;;;;19.59;65.01;99502.07;;;;-56
2020/10/01 04:24:20;;;;;;;2.50;2.30;;;;;;;19.59;65.05;99501.17;;;;-56
2020/10/01 04:27:20;;;;;;;2.39;2.19;;;;;;;19.59;65.01;99499.96;;;;-56
2020/10/01 04:30:20;;;;;;;2.68;2.39;;;;;;;19.59;65.05;99492.86;;;;-56
2020/10/01 04:33:20;;;;;;;2.47;2.27;;;;;;;19.58;65.02;99490.11;;;;-56
2020/10/01 04:36:20;;;;;;;2.41;2.21;;;;;;;19.59;65.08;99489.45;;;;-56
2020/10/01 04:39:20;;;;;;;2.42;2.22;;;;;;;19.58;65.06;99486.30;;;;-55
2020/10/01 04:42:20;;;;;;;2.31;2.11;;;;;;;19.58;65.06;99481.52;;;;-56
2020/10/01 04:45:20;;;;;;;2.44;2.24;;;;;;;19.58;65.02;99481.59;;;;-56
2020/10/01 04:48:20;;;;;;;2.38;2.10;;;;;;;19.58;65.07;99485.73;;;;-49
2020/10/01 04:51:20;;;;;;;2.53;2.33;;;;;;;19.57;65.01;99477.14;;;;-50
2020/10/01 04:54:20;;;;;;;2.53;2.33;;;;;;;19.57;64.99;99474.45;;;;-49
2020/10/01 04:57:20;;;;;;;2.65;2.43;;;;;;;19.58;65.00;99467.28;;;;-49
2020/10/01 05:00:20;;;;;;;2.60;2.37;;;;;;;19.58;64.99;99466.95;;;;-49
2020/10/01 05:03:20;;;;;;;2.52;2.32;;;;;;;19.57;65.00;99462.75;;;;-50
2020/10/01 05:06:20;;;;;;;2.47;2.27;;;;;;;19.58;65.02;99465.58;;;;-50
2020/10/01 05:09:20;;;;;;;2.55;2.35;;;;;;;19.57;64.98;99461.52;;;;-50
2020/10/01 05:12:20;;;;;;;2.46;2.26;;;;;;;19.57;65.05;99460.39;;;;-49
2020/10/01 05:15:20;;;;;;;2.29;2.09;;;;;;;19.57;65.03;99458.42;;;;-49
2020/10/01 05:18:20;;;;;;;2.44;2.24;;;;;;;19.57;65.00;99453.17;;;;-49
2020/10/01 05:21:20;;;;;;;2.27;2.07;;;;;;;19.60;64.98;99460.03;;;;-56
2020/10/01 05:24:20;;;;;;;2.30;2.10;;;;;;;19.61;64.93;99465.97;;;;-50
2020/10/01 05:27:20;;;;;;;3.14;2.19;;;;;;;19.63;64.87;99463.67;;;;-50
2020/10/01 05:30:20;;;;;;;2.21;2.01;;;;;;;19.66;64.86;99465.98;;;;-50
2020/10/01 05:33:20;;;;;;;2.25;2.05;;;;;;;19.67;64.85;99464.12;;;;-50
2020/10/01 05:36:20;;;;;;;2.19;2.00;;;;;;;19.70;64.78;99458.63;;;;-56
2020/10/01 05:39:20;;;;;;;2.26;2.07;;;;;;;19.73;64.87;99450.98;;;;-56
2020/10/01 05:42:20;;;;;;;2.29;2.09;;;;;;;19.75;64.97;99445.92;;;;-50
2020/10/01 05:45:20;;;;;;;2.07;1.91;;;;;;;19.78;64.99;99439.64;;;;-50
2020/10/01 05:48:20;;;;;;;2.19;1.99;;;;;;;19.81;65.11;99441.30;;;;-49
2020/10/01 05:51:20;;;;;;;2.10;1.90;;;;;;;19.83;65.16;99449.23;;;;-50
2020/10/01 05:54:20;;;;;;;2.12;1.98;;;;;;;19.87;65.19;99454.08;;;;-50
2020/10/01 05:57:20;;;;;;;2.21;2.01;;;;;;;19.90;65.28;99451.95;;;;-50
2020/10/01 06:00:20;;;;;;;2.17;1.99;;;;;;;19.92;65.28;99461.76;;;;-50
2020/10/01 06:03:20;;;;;;;2.19;2.02;;;;;;;19.95;65.38;99464.14;;;;-50
2020/10/01 06:06:20;;;;;;;2.25;2.05;;;;;;;19.99;65.37;99462.65;;;;-50
2020/10/01 06:09:20;;;;;;;2.19;1.99;;;;;;;20.02;65.48;99463.48;;;;-50
2020/10/01 06:12:20;;;;;;;1.89;1.79;;;;;;;20.05;65.52;99460.15;;;;-56
2020/10/01 06:15:20;;;;;;;2.13;1.90;;;;;;;20.07;65.49;99457.76;;;;-56
2020/10/01 06:18:20;;;;;;;2.20;2.00;;;;;;;20.09;65.50;99451.97;;;;-51
2020/10/01 06:21:20;;;;;;;2.09;1.90;;;;;;;20.11;65.47;99450.31;;;;-50
2020/10/01 06:24:20;;;;;;;2.02;1.92;;;;;;;20.13;65.50;99450.60;;;;-56
2020/10/01 06:27:20;;;;;;;2.00;1.90;;;;;;;20.16;65.49;99446.25;;;;-57
2020/10/01 06:30:20;;;;;;;2.07;1.95;;;;;;;20.17;65.50;99437.37;;;;-57
2020/10/01 06:33:20;;;;;;;2.11;1.91;;;;;;;20.20;65.44;99434.66;;;;-56
2020/10/01 06:36:20;;;;;;;1.82;1.72;;;;;;;20.22;65.50;99432.09;;;;-56
2020/10/01 06:39:20;;;;;;;2.08;1.90;;;;;;;20.23;65.50;99432.17;;;;-56
2020/10/01 06:42:20;;;;;;;1.97;1.87;;;;;;;20.25;65.47;99428.41;;;;-57
2020/10/01 06:45:24;;;;;;;1.93;1.83;;;;;;;20.27;65.48;99422.02;;;;-56
2020/10/01 06:48:20;;;;;;;2.03;1.91;;;;;;;20.29;65.48;99422.89;;;;-55
2020/10/01 06:51:20;;;;;;;2.11;1.91;;;;;;;20.30;65.46;99416.86;;;;-56
2020/10/01 06:54:20;;;;;;;1.95;1.85;;;;;;;20.32;65.43;99414.97;;;;-50
2020/10/01 06:57:20;;;;;;;1.91;1.80;;;;;;;20.34;65.40;99409.42;;;;-50
2020/10/01 07:00:20;;;;;;;2.00;1.89;;;;;;;20.34;65.41;99405.98;;;;-50
2020/10/01 07:03:20;;;;;;;1.99;1.81;;;;;;;20.35;65.39;99400.91;;;;-50
2020/10/01 07:06:20;;;;;;;2.00;1.80;;;;;;;20.36;65.34;99395.14;;;;-50
2020/10/01 07:09:20;;;;;;;2.02;1.92;;;;;;;20.38;65.35;99390.95;;;;-50
2020/10/01 07:12:20;;;;;;;2.09;1.89;;;;;;;20.38;65.31;99392.42;;;;-51
2020/10/01 07:15:20;;;;;;;2.04;1.84;;;;;;;20.39;65.31;99387.69;;;;-50
2020/10/01 07:18:20;;;;;;;2.13;1.95;;;;;;;20.40;65.29;99385.72;;;;-57
2020/10/01 07:21:20;;;;;;;2.09;1.93;;;;;;;20.41;65.26;99382.70;;;;-56
2020/10/01 07:24:20;;;;;;;1.85;1.75;;;;;;;20.42;65.25;99380.32;;;;-57
2020/10/01 07:27:20;;;;;;;2.16;1.96;;;;;;;20.44;65.25;99380.27;;;;-57
2020/10/01 07:30:20;;;;;;;2.01;1.87;;;;;;;20.45;65.23;99380.34;;;;-57
2020/10/01 07:33:20;;;;;;;1.84;1.74;;;;;;;20.47;65.23;99377.89;;;;-56
2020/10/01 07:36:20;;;;;;;1.98;1.88;;;;;;;20.48;65.25;99373.54;;;;-57
2020/10/01 07:39:20;;;;;;;2.10;1.90;;;;;;;20.50;65.23;99375.41;;;;-57
2020/10/01 07:42:20;;;;;;;5.85;2.52;;;;;;;20.46;63.76;99370.91;;;;-46
2020/10/01 07:45:20;;;;;;;9.19;4.60;;;;;;;20.37;62.97;99361.84;;;;-53
2020/10/01 07:48:20;;;;;;;12.02;8.11;;;;;;;20.21;61.95;99357.91;;;;-52
2020/10/01 07:51:20;;;;;;;14.50;7.18;;;;;;;20.29;62.74;99353.08;;;;-52
2020/10/01 07:54:20;;;;;;;16.41;7.01;;;;;;;20.35;63.07;99349.56;;;;-52
2020/10/01 07:57:20;;;;;;;7.37;5.38;;;;;;;20.39;63.30;99341.05;;;;-56
2020/10/01 08:00:20;;;;;;;9.68;4.64;;;;;;;20.44;63.57;99336.66;;;;-51
2020/10/01 08:03:20;;;;;;;11.49;4.10;;;;;;;20.46;63.47;99332.25;;;;-51
2020/10/01 08:06:20;;;;;;;6.99;3.97;;;;;;;20.49;63.45;99337.82;;;;-56
2020/10/01 08:09:20;;;;;;;6.24;3.67;;;;;;;20.52;63.48;99344.52;;;;-51
2020/10/01 08:12:20;;;;;;;6.91;3.86;;;;;;;20.53;63.51;99349.88;;;;-56
2020/10/01 08:15:20;;;;;;;7.77;3.67;;;;;;;20.55;63.75;99354.16;;;;-51
2020/10/01 08:18:20;;;;;;;14.17;3.93;;;;;;;20.57;63.85;99353.25;;;;-53
2020/10/01 08:21:20;;;;;;;8.43;3.57;;;;;;;20.58;63.81;99350.38;;;;-57
2020/10/01 08:24:20;;;;;;;6.49;3.42;;;;;;;20.59;63.94;99348.51;;;;-57
2020/10/01 08:27:20;;;;;;;6.87;3.38;;;;;;;20.61;63.85;99351.89;;;;-58
2020/10/01 08:30:20;;;;;;;6.17;3.25;;;;;;;20.62;63.84;99346.81;;;;-54
2020/10/01 08:33:20;;;;;;;5.86;3.23;;;;;;;20.64;63.85;99344.28;;;;-55
2020/10/01 08:36:20;;;;;;;5.23;3.23;;;;;;;20.65;63.88;99340.28;;;;-55
2020/10/01 08:39:20;;;;;;;5.16;3.19;;;;;;;20.65;63.61;99337.09;;;;-52
2020/10/01 08:42:20;;;;;;;5.53;3.09;;;;;;;20.66;63.51;99335.61;;;;-55
2020/10/01 08:45:20;;;;;;;5.95;3.19;;;;;;;20.66;63.75;99335.84;;;;-56
2020/10/01 08:48:20;;;;;;;6.67;3.37;;;;;;;20.68;63.62;99340.36;;;;-54
2020/10/01 08:51:20;;;;;;;4.95;3.53;;;;;;;20.69;63.65;99337.03;;;;-56
2020/10/01 08:54:20;;;;;;;6.21;3.67;;;;;;;20.70;63.67;99330.25;;;;-52
2020/10/01 08:57:20;;;;;;;5.84;3.70;;;;;;;20.71;63.60;99332.86;;;;-50
2020/10/01 09:00:20;;;;;;;8.17;3.75;;;;;;;20.71;63.48;99330.41;;;;-56
2020/10/01 09:03:20;;;;;;;4.41;3.45;;;;;;;20.70;63.45;99327.07;;;;-57
2020/10/01 09:06:20;;;;;;;4.31;3.59;;;;;;;20.71;63.39;99323.56;;;;-56
2020/10/01 09:09:20;;;;;;;9.78;3.59;;;;;;;20.73;63.77;99320.45;;;;-51
2020/10/01 09:12:20;;;;;;;6.96;3.67;;;;;;;20.72;63.31;99317.19;;;;-51
2020/10/01 09:15:20;;;;;;;9.37;3.65;;;;;;;20.74;63.38;99315.63;;;;-57
2020/10/01 09:18:20;;;;;;;12.93;3.33;;;;;;;20.74;63.53;99320.99;;;;-55
2020/10/01 09:21:20;;;;;;;5.89;3.23;;;;;;;20.73;63.56;99323.94;;;;-52
2020/10/01 09:24:20;;;;;;;8.51;3.17;;;;;;;20.74;63.50;99323.53;;;;-54
2020/10/01 09:27:20;;;;;;;3.61;3.06;;;;;;;20.74;63.64;99320.83;;;;-57
2020/10/01 09:30:20;;;;;;;8.09;3.06;;;;;;;20.75;63.63;99323.66;;;;-54
2020/10/01 09:33:20;;;;;;;6.31;3.30;;;;;;;20.76;63.90;99320.47;;;;-58
2020/10/01 09:36:20;;;;;;;6.35;3.05;;;;;;;20.76;63.68;99320.78;;;;-58
2020/10/01 09:39:20;;;;;;;6.21;3.03;;;;;;;20.77;63.64;99320.53;;;;-58
2020/10/01 09:42:20;;;;;;;4.73;2.99;;;;;;;20.77;63.62;99315.87;;;;-53
2020/10/01 09:45:20;;;;;;;6.59;3.32;;;;;;;20.77;63.58;99307.98;;;;-56
2020/10/01 09:48:20;;;;;;;4.07;2.92;;;;;;;20.77;63.59;99306.44;;;;-56
2020/10/01 09:51:20;;;;;;;4.18;2.83;;;;;;;20.77;63.68;99308.73;;;;-56
2020/10/01 09:54:20;;;;;;;5.15;3.11;;;;;;;20.78;63.64;99306.83;;;;-50
2020/10/01 09:57:20;;;;;;;6.98;3.09;;;;;;;20.78;63.42;99302.61;;;;-50
2020/10/01 10:00:20;;;;;;;5.41;3.11;;;;;;;20.78;62.94;99305.45;;;;-53
2020/10/01 10:03:20;;;;;;;7.69;3.20;;;;;;;20.80;62.93;99306.97;;;;-53
2020/10/01 10:06:20;;;;;;;5.58;3.06;;;;;;;20.81;63.15;99307.27;;;;-54
2020/10/01 10:09:21;;;;;;;8.12;3.36;;;;;;;20.80;63.22;99306.39;;;;-57
2020/10/01 10:12:20;;;;;;;3.68;2.93;;;;;;;20.80;63.24;99302.00;;;;-54
2020/10/01 10:15:20;;;;;;;8.99;3.19;;;;;;;20.79;63.49;99299.08;;;;-56
2020/10/01 10:18:20;;;;;;;7.99;2.97;;;;;;;20.79;63.53;99293.93;;;;-53
2020/10/01 10:21:20;;;;;;;7.34;3.41;;;;;;;20.78;63.54;99291.20;;;;-51
2020/10/01 10:24:20;;;;;;;6.21;3.09;;;;;;;20.78;63.57;99287.87;;;;-51
2020/10/01 10:27:20;;;;;;;7.87;2.95;;;;;;;20.76;63.54;99285.45;;;;-51
2020/10/01 10:30:20;;;;;;;5.41;2.99;;;;;;;20.76;63.55;99278.39;;;;-51
2020/10/01 10:33:20;;;;;;;6.07;3.08;;;;;;;20.75;63.52;99275.86;;;;-51
2020/10/01 10:36:20;;;;;;;5.87;2.92;;;;;;;20.74;63.53;99269.63;;;;-51
2020/10/01 10:39:20;;;;;;;6.17;2.76;;;;;;;20.73;63.53;99265.80;;;;-51
2020/10/01 10:42:20;;;;;;;6.17;3.22;;;;;;;20.72;63.53;99260.70;;;;-51
2020/10/01 10:45:20;;;;;;;4.22;2.82;;;;;;;20.71;63.49;99259.83;;;;-52
2020/10/01 10:48:20;;;;;;;5.10;3.17;;;;;;;20.71;63.47;99261.61;;;;-53
2020/10/01 10:51:20;;;;;;;5.03;2.90;;;;;;;20.70;63.51;99256.09;;;;-51
2020/10/01 10:54:20;;;;;;;4.11;2.61;;;;;;;20.69;63.55;99248.86;;;;-51
2020/10/01 10:57:20;;;;;;;4.14;2.74;;;;;;;20.68;63.52;99243.09;;;;-51
2020/10/01 11:00:20;;;;;;;4.45;2.69;;;;;;;20.68;63.51;99242.37;;;;-51
2020/10/01 11:03:20;;;;;;;4.27;2.91;;;;;;;20.68;63.53;99240.91;;;;-51
2020/10/01 11:06:20;;;;;;;3.79;2.77;;;;;;;20.67;63.53;99242.88;;;;-51
2020/10/01 11:09:20;;;;;;;4.56;2.85;;;;;;;20.65;63.52;99235.09;;;;-51
2020/10/01 11:12:20;;;;;;;4.43;2.97;;;;;;;20.65;63.55;99234.28;;;;-51
2020/10/01 11:15:22;;;;;;;4.91;2.72;;;;;;;20.65;63.54;99228.28;;;;-52
2020/10/01 11:18:20;;;;;;;4.08;2.50;;;;;;;20.64;63.53;99219.42;;;;-52
2020/10/01 11:21:20;;;;;;;4.91;2.80;;;;;;;20.63;63.52;99215.59;;;;-51
2020/10/01 11:24:20;;;;;;;3.10;2.54;;;;;;;20.63;63.51;99213.16;;;;-50
2020/10/01 11:27:20;;;;;;;4.45;2.63;;;;;;;20.62;63.56;99202.02;;;;-51
2020/10/01 11:30:20;;;;;;;3.66;2.87;;;;;;;20.61;63.55;99189.44;;;;-52
2020/10/01 11:33:20;;;;;;;4.34;2.60;;;;;;;20.60;63.59;99186.03;;;;-51
2020/10/01 11:36:20;;;;;;;3.11;2.53;;;;;;;20.59;63.55;99190.67;;;;-51
2020/10/01 11:39:20;;;;;;;3.97;2.59;;;;;;;20.59;63.57;99190.20;;;;-51
2020/10/01 11:42:20;;;;;;;3.23;2.55;;;;;;;20.59;63.58;99190.45;;;;-53
2020/10/01 11:45:20;;;;;;;3.21;2.72;;;;;;;20.57;63.60;99188.24;;;;-51
2020/10/01 11:48:20;;;;;;;3.00;2.53;;;;;;;20.57;63.61;99184.45;;;;-54
2020/10/01 11:51:20;;;;;;;4.45;2.53;;;;;;;20.56;63.59;99178.33;;;;-54
2020/10/01 11:54:20;;;;;;;3.54;2.65;;;;;;;20.55;63.61;99178.03;;;;-54
2020/10/01 11:57:20;;;;;;;3.01;2.72;;;;;;;20.55;63.58;99168.37;;;;-53
2020/10/01 12:00:20;;;;;;;4.29;2.59;;;;;;;20.54;63.63;99162.33;;;;-54
2020/10/01 12:03:20;;;;;;;7.81;2.59;;;;;;;20.54;63.64;99161.36;;;;-54
2020/10/01 12:06:20;;;;;;;3.83;2.43;;;;;;;20.54;63.71;99164.95;;;;-60
2020/10/01 12:09:20;;;;;;;6.33;2.71;;;;;;;20.53;63.85;99161.06;;;;-57
2020/10/01 12:12:20;;;;;;;7.85;2.80;;;;;;;20.55;63.92;99157.63;;;;-54
2020/10/01 12:15:20;;;;;;;8.42;2.57;;;;;;;20.54;64.08;99154.53;;;;-60
2020/10/01 12:18:20;;;;;;;13.45;2.76;;;;;;;20.56;64.14;99148.55;;;;-53
2020/10/01 12:21:20;;;;;;;6.79;2.82;;;;;;;20.57;64.19;99146.17;;;;-60
2020/10/01 12:24:20;;;;;;;7.02;2.67;;;;;;;20.59;64.18;99143.25;;;;-58
2020/10/01 12:27:20;;;;;;;6.08;2.59;;;;;;;20.59;64.11;99140.14;;;;-58
2020/10/01 12:30:20;;;;;;;7.88;2.74;;;;;;;20.60;64.12;99134.98;;;;-58
2020/10/01 12:33:20;;;;;;;8.57;2.89;;;;;;;20.59;64.10;99128.91;;;;-53
2020/10/01 12:36:20;;;;;;;5.82;2.78;;;;;;;20.61;64.16;99128.62;;;;-54
2020/10/01 12:39:20;;;;;;;8.55;2.39;;;;;;;20.61;64.22;99127.75;;;;-59
2020/10/01 12:42:20;;;;;;;8.48;2.65;;;;;;;20.61;64.30;99130.84;;;;-61
2020/10/01 12:45:20;;;;;;;7.82;2.69;;;;;;;20.61;64.29;99132.63;;;;-57
2020/10/01 12:48:20;;;;;;;5.37;2.51;;;;;;;20.62;64.25;99136.16;;;;-54
2020/10/01 12:51:20;;;;;;;7.87;2.71;;;;;;;20.64;64.28;99138.25;;;;-53
2020/10/01 12:54:20;;;;;;;8.22;2.96;;;;;;;20.64;64.29;99138.91;;;;-63
2020/10/01 12:57:20;;;;;;;3.99;2.49;;;;;;;20.64;64.26;99143.61;;;;-62
2020/10/01 13:00:20;;;;;;;4.77;2.60;;;;;;;20.64;64.30;99142.56;;;;-62
2020/10/01 13:03:20;;;;;;;5.99;2.69;;;;;;;20.63;64.33;99133.72;;;;-63
2020/10/01 13:06:20;;;;;;;7.56;2.61;;;;;;;20.64;64.31;99132.39;;;;-58
2020/10/01 13:09:20;;;;;;;4.23;2.73;;;;;;;20.63;64.30;99128.18;;;;-53
2020/10/01 13:12:20;;;;;;;4.79;2.59;;;;;;;20.63;64.33;99131.20;;;;-60
2020/10/01 13:15:20;;;;;;;3.56;2.51;;;;;;;20.64;64.34;99135.91;;;;-59
2020/10/01 13:18:20;;;;;;;10.43;2.59;;;;;;;20.64;64.44;99132.06;;;;-56
2020/10/01 13:21:20;;;;;;;6.69;2.73;;;;;;;20.64;64.28;99126.93;;;;-58
2020/10/01 13:24:20;;;;;;;7.40;2.56;;;;;;;20.65;64.39;99122.12;;;;-52
2020/10/01 13:27:22;;;;;;;5.50;2.56;;;;;;;20.65;64.37;99124.72;;;;-53
2020/10/01 13:30:20;;;;;;;3.07;2.37;;;;;;;20.65;64.42;99125.30;;;;-53
2020/10/01 13:33:20;;;;;;;5.09;2.54;;;;;;;20.66;64.39;99128.28;;;;-56
2020/10/01 13:36:20;;;;;;;5.49;2.55;;;;;;;20.66;64.39;99131.03;;;;-57
2020/10/01 13:39:20;;;;;;;4.09;2.41;;;;;;;20.67;64.34;99127.69;;;;-53
2020/10/01 13:42:20;;;;;;;5.88;2.56;;;;;;;20.67;64.46;99129.64;;;;-60
2020/10/01 13:45:20;;;;;;;5.19;2.36;;;;;;;20.67;64.42;99132.24;;;;-59
2020/10/01 13:48:20;;;;;;;5.37;2.51;;;;;;;20.68;64.42;99129.64;;;;-61
2020/10/01 13:51:20;;;;;;;4.72;2.49;;;;;;;20.67;64.40;99129.66;;;;-59
2020/10/01 13:54:20;;;;;;;3.49;2.37;;;;;;;20.67;64.50;99128.17;;;;-55
2020/10/01 13:57:20;;;;;;;3.80;2.33;;;;;;;20.67;64.43;99128.50;;;;-56
2020/10/01 14:00:20;;;;;;;4.67;2.53;;;;;;;20.67;64.51;99127.61;;;;-56
2020/10/01 14:03:20;;;;;;;4.72;2.37;;;;;;;20.68;64.49;99128.33;;;;-55
2020/10/01 14:06:20;;;;;;;5.26;2.28;;;;;;;20.68;64.44;99130.59;;;;-55
2020/10/01 14:09:20;;;;;;;3.81;2.35;;;;;;;20.68;64.46;99127.83;;;;-57
2020/10/01 14:12:20;;;;;;;3.61;2.29;;;;;;;20.67;64.46;99130.05;;;;-56
2020/10/01 14:15:20;;;;;;;3.65;2.43;;;;;;;20.68;64.45;99136.95;;;;-58
2020/10/01 14:18:20;;;;;;;3.69;2.32;;;;;;;20.69;64.50;99133.34;;;;-55
2020/10/01 14:21:20;;;;;;;4.13;2.42;;;;;;;20.69;64.47;99143.20;;;;-58
2020/10/01 14:24:20;;;;;;;4.06;2.20;;;;;;;20.70;64.44;99140.65;;;;-57
2020/10/01 14:27:20;;;;;;;4.53;2.49;;;;;;;20.70;64.46;99147.09;;;;-57
2020/10/01 14:30:20;;;;;;;3.15;2.27;;;;;;;20.71;64.45;99153.11;;;;-54
2020/10/01 14:33:20;;;;;;;3.00;2.20;;;;;;;20.71;64.43;99158.31;;;;-52
2020/10/01 14:36:20;;;;;;;6.05;2.41;;;;;;;20.70;64.63;99157.91;;;;-54
2020/10/01 14:39:20;;;;;;;7.31;2.49;;;;;;;20.71;64.30;99162.55;;;;-52
2020/10/01 14:42:20;;;;;;;4.11;2.39;;;;;;;20.70;64.51;99165.98;;;;-57
2020/10/01 14:45:20;;;;;;;4.36;2.40;;;;;;;20.69;64.53;99164.92;;;;-56
2020/10/01 14:48:20;;;;;;;5.83;2.45;;;;;;;20.70;64.52;99166.88;;;;-52
2020/10/01 14:51:19;;;;;;;4.28;2.26;;;;;;;20.69;64.53;99167.96;;;;-57
2020/10/01 14:54:20;;;;;;;5.67;2.38;;;;;;;20.70;64.53;99171.92;;;;-61
2020/10/01 14:57:20;;;;;;;6.08;2.37;;;;;;;20.68;64.56;99173.34;;;;-57
2020/10/01 15:00:20;;;;;;;4.58;2.45;;;;;;;20.69;64.56;99175.45;;;;-56
2020/10/01 15:03:21;;;;;;;4.74;2.27;;;;;;;20.69;64.58;99179.03;;;;-60
2020/10/01 15:06:20;;;;;;;5.17;2.30;;;;;;;20.69;64.63;99180.50;;;;-51
2020/10/01 15:09:20;;;;;;;2.99;2.22;;;;;;;20.69;64.59;99178.20;;;;-60
2020/10/01 15:12:20;;;;;;;4.38;2.27;;;;;;;20.71;64.55;99177.03;;;;-60
2020/10/01 15:15:20;;;;;;;4.59;2.39;;;;;;;20.69;64.61;99179.18;;;;-63
2020/10/01 15:18:20;;;;;;;2.84;2.34;;;;;;;20.70;64.60;99178.27;;;;-57
2020/10/01 15:21:20;;;;;;;5.58;2.43;;;;;;;20.71;64.62;99178.08;;;;-58
2020/10/01 15:24:20;;;;;;;2.93;2.33;;;;;;;20.71;64.61;99177.69;;;;-57
2020/10/01 15:27:20;;;;;;;5.54;2.35;;;;;;;20.70;64.74;99173.30;;;;-54
2020/10/01 15:30:20;;;;;;;4.19;2.40;;;;;;;20.70;64.67;99169.88;;;;-58
2020/10/01 15:33:20;;;;;;;4.97;2.22;;;;;;;20.69;64.72;99166.48;;;;-50
2020/10/01 15:36:20;;;;;;;5.81;2.23;;;;;;;20.69;64.70;99168.52;;;;-50
2020/10/01 15:39:20;;;;;;;5.55;2.41;;;;;;;20.69;64.74;99165.91;;;;-50
2020/10/01 15:42:20;;;;;;;4.85;2.34;;;;;;;20.68;64.79;99162.73;;;;-58
2020/10/01 15:45:20;;;;;;;3.64;2.33;;;;;;;20.69;64.82;99157.45;;;;-52
2020/10/01 15:48:20;;;;;;;5.83;2.24;;;;;;;20.71;64.79;99150.02;;;;-51
2020/10/01 15:51:20;;;;;;;6.36;2.40;;;;;;;20.71;64.75;99158.97;;;;-50
2020/10/01 15:54:20;;;;;;;3.11;2.26;;;;;;;20.73;64.83;99162.57;;;;-51
2020/10/01 15:57:20;;;;;;;4.52;2.45;;;;;;;20.72;64.87;99157.23;;;;-52
2020/10/01 16:00:20;;;;;;;4.19;2.10;;;;;;;20.73;64.99;99156.31;;;;-60
2020/10/01 16:03:20;;;;;;;3.49;2.20;;;;;;;20.74;65.00;99156.80;;;;-56
2020/10/01 16:06:20;;;;;;;2.75;2.25;;;;;;;20.73;64.96;99155.67;;;;-52
2020/10/01 16:09:20;;;;;;;2.87;2.29;;;;;;;20.73;65.00;99163.56;;;;-53
2020/10/01 16:12:20;;;;;;;4.07;2.16;;;;;;;20.73;64.97;99171.13;;;;-58
2020/10/01 16:15:20;;;;;;;4.01;2.37;;;;;;;20.73;64.97;99171.30;;;;-52
2020/10/01 16:18:20;;;;;;;3.02;2.21;;;;;;;20.73;64.96;99169.25;;;;-48
2020/10/01 16:21:20;;;;;;;2.80;2.13;;;;;;;20.72;64.99;99169.42;;;;-48
2020/10/01 16:24:20;;;;;;;4.63;2.23;;;;;;;20.72;64.97;99168.47;;;;-56
2020/10/01 16:27:20;;;;;;;3.40;2.18;;;;;;;20.70;64.93;99161.34;;;;-54
2020/10/01 16:30:20;;;;;;;3.43;2.12;;;;;;;20.68;64.95;99159.34;;;;-48
2020/10/01 16:33:20;;;;;;;4.13;1.97;;;;;;;20.66;64.96;99154.31;;;;-49
2020/10/01 16:36:20;;;;;;;4.10;2.09;;;;;;;20.65;64.95;99163.70;;;;-49
2020/10/01 16:39:19;;;;;;;3.33;2.11;;;;;;;20.66;65.09;99171.59;;;;-47
2020/10/01 16:42:20;;;;;;;2.97;2.08;;;;;;;20.65;65.01;99172.19;;;;-44
2020/10/01 16:45:21;;;;;;;6.86;2.25;;;;;;;20.66;64.98;99170.70;;;;-51
2020/10/01 16:48:20;;;;;;;4.50;2.23;;;;;;;20.67;65.01;99175.81;;;;-55
2020/10/01 16:51:20;;;;;;;4.72;2.13;;;;;;;20.67;64.93;99174.09;;;;-51
2020/10/01 16:54:20;;;;;;;3.00;2.31;;;;;;;20.66;65.00;99169.30;;;;-48